sensor_id;sensor_type;location;lat;lon;timestamp;P1;durP1;ratioP1;P2;durP2;ratioP2
38252;SDS011;24785;52.372;20.672;2022-08-02T00:01:57;9.85;;;6.32;;
38252;SDS011;24785;52.372;20.672;2022-08-02T00:11:58;10.57;;;6.88;;
38252;SDS011;24785;52.372;20.672;2022-08-02T00:21:58;11.10;;;7.65;;
38252;SDS011;24785;52.372;20.672;2022-08-02T00:31:59;9.98;;;7.05;;
38252;SDS011;24785;52.372;20.672;2022-08-02T00:42:01;9.50;;;6.22;;
38252;SDS011;24785;52.372;20.672;2022-08-02T00:52:02;10.73;;;6.53;;
38252;SDS011;24785;52.372;20.672;2022-08-02T01:02:04;8.27;;;5.87;;
38252;SDS011;24785;52.372;20.672;2022-08-02T01:12:05;10.15;;;6.00;;
38252;SDS011;24785;52.372;20.672;2022-08-02T01:32:16;9.45;;;6.30;;
38252;SDS011;24785;52.372;20.672;2022-08-02T01:42:23;11.60;;;7.53;;
38252;SDS011;24785;52.372;20.672;2022-08-02T01:52:28;11.95;;;8.05;;
38252;SDS011;24785;52.372;20.672;2022-08-02T02:02:32;10.60;;;6.78;;
38252;SDS011;24785;52.372;20.672;2022-08-02T02:12:36;10.32;;;6.40;;
38252;SDS011;24785;52.372;20.672;2022-08-02T02:22:40;8.43;;;5.38;;
38252;SDS011;24785;52.372;20.672;2022-08-02T02:32:41;39.22;;;6.38;;
38252;SDS011;24785;52.372;20.672;2022-08-02T02:42:44;4.97;;;3.75;;
38252;SDS011;24785;52.372;20.672;2022-08-02T02:52:47;6.55;;;3.50;;
38252;SDS011;24785;52.372;20.672;2022-08-02T03:02:49;4.03;;;3.03;;
38252;SDS011;24785;52.372;20.672;2022-08-02T03:12:50;7.93;;;3.22;;
38252;SDS011;24785;52.372;20.672;2022-08-02T03:22:51;8.15;;;4.38;;
38252;SDS011;24785;52.372;20.672;2022-08-02T03:32:52;6.03;;;3.80;;
38252;SDS011;24785;52.372;20.672;2022-08-02T03:42:53;7.38;;;4.05;;
38252;SDS011;24785;52.372;20.672;2022-08-02T03:52:54;13.27;;;4.60;;
38252;SDS011;24785;52.372;20.672;2022-08-02T04:02:56;14.80;;;5.40;;
38252;SDS011;24785;52.372;20.672;2022-08-02T04:12:57;11.52;;;4.32;;
38252;SDS011;24785;52.372;20.672;2022-08-02T04:23:03;7.28;;;4.63;;
38252;SDS011;24785;52.372;20.672;2022-08-02T04:33:05;10.57;;;6.13;;
38252;SDS011;24785;52.372;20.672;2022-08-02T04:43:07;10.83;;;5.50;;
38252;SDS011;24785;52.372;20.672;2022-08-02T04:53:08;10.15;;;5.50;;
38252;SDS011;24785;52.372;20.672;2022-08-02T05:03:09;19.20;;;6.10;;
38252;SDS011;24785;52.372;20.672;2022-08-02T05:13:09;7.57;;;4.10;;
38252;SDS011;24785;52.372;20.672;2022-08-02T05:23:11;6.27;;;3.87;;
38252;SDS011;24785;52.372;20.672;2022-08-02T05:43:14;11.67;;;3.73;;
38252;SDS011;24785;52.372;20.672;2022-08-02T05:53:23;11.05;;;3.50;;
38252;SDS011;24785;52.372;20.672;2022-08-02T06:03:35;9.00;;;3.05;;
38252;SDS011;24785;52.372;20.672;2022-08-02T06:13:40;5.30;;;2.88;;
38252;SDS011;24785;52.372;20.672;2022-08-02T06:23:42;6.53;;;2.45;;
38252;SDS011;24785;52.372;20.672;2022-08-02T06:33:44;5.45;;;1.90;;
38252;SDS011;24785;52.372;20.672;2022-08-02T06:43:55;4.57;;;1.93;;
38252;SDS011;24785;52.372;20.672;2022-08-02T06:54:00;4.10;;;1.80;;
38252;SDS011;24785;52.372;20.672;2022-08-02T07:04:01;2.00;;;1.30;;
38252;SDS011;24785;52.372;20.672;2022-08-02T07:14:02;4.27;;;1.60;;
38252;SDS011;24785;52.372;20.672;2022-08-02T07:24:03;3.27;;;1.50;;
38252;SDS011;24785;52.372;20.672;2022-08-02T07:34:04;3.70;;;1.47;;
38252;SDS011;24785;52.372;20.672;2022-08-02T07:44:05;4.97;;;2.23;;
38252;SDS011;24785;52.372;20.672;2022-08-02T07:54:05;7.67;;;1.80;;
38252;SDS011;24785;52.372;20.672;2022-08-02T08:04:06;4.30;;;1.60;;
38252;SDS011;24785;52.372;20.672;2022-08-02T08:14:08;5.45;;;1.50;;
38252;SDS011;24785;52.372;20.672;2022-08-02T08:24:09;2.63;;;1.27;;
38252;SDS011;24785;52.372;20.672;2022-08-02T08:34:09;4.50;;;2.00;;
38252;SDS011;24785;52.372;20.672;2022-08-02T08:44:10;2.87;;;1.57;;
38252;SDS011;24785;52.372;20.672;2022-08-02T08:54:13;4.47;;;1.73;;
38252;SDS011;24785;52.372;20.672;2022-08-02T09:04:16;3.60;;;2.10;;
38252;SDS011;24785;52.372;20.672;2022-08-02T09:14:25;3.53;;;1.50;;
38252;SDS011;24785;52.372;20.672;2022-08-02T09:24:28;3.97;;;1.98;;
38252;SDS011;24785;52.372;20.672;2022-08-02T09:35:11;3.47;;;1.67;;
38252;SDS011;24785;52.372;20.672;2022-08-02T09:44:56;3.58;;;1.80;;
38252;SDS011;24785;52.372;20.672;2022-08-02T09:55:05;4.78;;;1.67;;
38252;SDS011;24785;52.372;20.672;2022-08-02T10:05:06;4.45;;;2.00;;
38252;SDS011;24785;52.372;20.672;2022-08-02T10:15:08;4.85;;;1.88;;
38252;SDS011;24785;52.372;20.672;2022-08-02T10:25:10;4.10;;;1.63;;
38252;SDS011;24785;52.372;20.672;2022-08-02T10:35:15;10.20;;;1.85;;
38252;SDS011;24785;52.372;20.672;2022-08-02T10:45:18;4.50;;;1.90;;
38252;SDS011;24785;52.372;20.672;2022-08-02T10:55:20;5.53;;;2.80;;
38252;SDS011;24785;52.372;20.672;2022-08-02T11:05:30;4.07;;;2.05;;
38252;SDS011;24785;52.372;20.672;2022-08-02T11:26:52;5.63;;;2.20;;
38252;SDS011;24785;52.372;20.672;2022-08-02T11:36:30;4.03;;;2.17;;
38252;SDS011;24785;52.372;20.672;2022-08-02T11:46:32;4.40;;;1.92;;
38252;SDS011;24785;52.372;20.672;2022-08-02T11:56:33;7.07;;;2.25;;
38252;SDS011;24785;52.372;20.672;2022-08-02T12:06:34;6.73;;;2.00;;
38252;SDS011;24785;52.372;20.672;2022-08-02T12:16:36;4.83;;;2.53;;
38252;SDS011;24785;52.372;20.672;2022-08-02T12:26:57;5.40;;;1.98;;
38252;SDS011;24785;52.372;20.672;2022-08-02T12:36:59;4.00;;;2.20;;
38252;SDS011;24785;52.372;20.672;2022-08-02T12:47:06;3.42;;;2.10;;
38252;SDS011;24785;52.372;20.672;2022-08-02T12:57:12;4.53;;;2.00;;
38252;SDS011;24785;52.372;20.672;2022-08-02T13:07:14;3.17;;;1.92;;
38252;SDS011;24785;52.372;20.672;2022-08-02T13:17:16;4.65;;;2.03;;
38252;SDS011;24785;52.372;20.672;2022-08-02T13:27:17;3.80;;;2.10;;
38252;SDS011;24785;52.372;20.672;2022-08-02T13:37:19;4.88;;;2.10;;
38252;SDS011;24785;52.372;20.672;2022-08-02T13:47:20;3.85;;;2.70;;
38252;SDS011;24785;52.372;20.672;2022-08-02T13:57:21;3.73;;;2.10;;
38252;SDS011;24785;52.372;20.672;2022-08-02T14:07:22;3.37;;;2.10;;
38252;SDS011;24785;52.372;20.672;2022-08-02T14:17:23;4.80;;;2.13;;
38252;SDS011;24785;52.372;20.672;2022-08-02T14:27:24;3.15;;;2.15;;
38252;SDS011;24785;52.372;20.672;2022-08-02T14:37:25;5.33;;;2.10;;
38252;SDS011;24785;52.372;20.672;2022-08-02T14:47:26;3.63;;;2.08;;
38252;SDS011;24785;52.372;20.672;2022-08-02T14:57:26;4.80;;;2.00;;
38252;SDS011;24785;52.372;20.672;2022-08-02T15:07:27;3.87;;;2.00;;
38252;SDS011;24785;52.372;20.672;2022-08-02T15:17:28;4.07;;;2.40;;
38252;SDS011;24785;52.372;20.672;2022-08-02T15:27:29;8.88;;;2.28;;
38252;SDS011;24785;52.372;20.672;2022-08-02T15:47:34;3.15;;;1.98;;
38252;SDS011;24785;52.372;20.672;2022-08-02T16:07:35;4.53;;;1.80;;
38252;SDS011;24785;52.372;20.672;2022-08-02T16:17:36;3.35;;;1.98;;
38252;SDS011;24785;52.372;20.672;2022-08-02T16:27:37;4.93;;;2.13;;
38252;SDS011;24785;52.372;20.672;2022-08-02T16:37:38;6.25;;;2.20;;
38252;SDS011;24785;52.372;20.672;2022-08-02T16:47:39;5.97;;;3.35;;
38252;SDS011;24785;52.372;20.672;2022-08-02T16:57:40;5.07;;;2.80;;
38252;SDS011;24785;52.372;20.672;2022-08-02T17:07:41;3.57;;;2.23;;
38252;SDS011;24785;52.372;20.672;2022-08-02T17:17:43;7.38;;;2.47;;
38252;SDS011;24785;52.372;20.672;2022-08-02T17:27:44;5.17;;;2.30;;
38252;SDS011;24785;52.372;20.672;2022-08-02T17:47:46;9.80;;;3.53;;
38252;SDS011;24785;52.372;20.672;2022-08-02T17:57:47;8.43;;;3.00;;
38252;SDS011;24785;52.372;20.672;2022-08-02T18:07:48;4.80;;;3.13;;
38252;SDS011;24785;52.372;20.672;2022-08-02T18:17:49;8.57;;;3.83;;
38252;SDS011;24785;52.372;20.672;2022-08-02T18:27:50;10.80;;;5.03;;
38252;SDS011;24785;52.372;20.672;2022-08-02T18:37:51;7.28;;;4.50;;
38252;SDS011;24785;52.372;20.672;2022-08-02T18:47:52;5.93;;;4.03;;
38252;SDS011;24785;52.372;20.672;2022-08-02T18:57:53;7.30;;;4.15;;
38252;SDS011;24785;52.372;20.672;2022-08-02T19:07:54;8.18;;;4.28;;
38252;SDS011;24785;52.372;20.672;2022-08-02T19:17:55;10.40;;;4.55;;
38252;SDS011;24785;52.372;20.672;2022-08-02T19:27:57;6.82;;;4.70;;
38252;SDS011;24785;52.372;20.672;2022-08-02T19:38:08;7.38;;;4.97;;
38252;SDS011;24785;52.372;20.672;2022-08-02T19:48:10;10.82;;;5.80;;
38252;SDS011;24785;52.372;20.672;2022-08-02T19:58:13;10.35;;;7.40;;
38252;SDS011;24785;52.372;20.672;2022-08-02T20:08:14;9.32;;;6.25;;
38252;SDS011;24785;52.372;20.672;2022-08-02T20:18:15;10.82;;;6.10;;
38252;SDS011;24785;52.372;20.672;2022-08-02T20:28:16;10.35;;;6.47;;
38252;SDS011;24785;52.372;20.672;2022-08-02T20:38:17;9.35;;;5.80;;
38252;SDS011;24785;52.372;20.672;2022-08-02T20:48:18;5.88;;;4.10;;
38252;SDS011;24785;52.372;20.672;2022-08-02T20:58:19;7.15;;;5.25;;
38252;SDS011;24785;52.372;20.672;2022-08-02T21:08:20;7.28;;;5.65;;
38252;SDS011;24785;52.372;20.672;2022-08-02T21:18:22;7.20;;;4.97;;
38252;SDS011;24785;52.372;20.672;2022-08-02T21:28:23;5.85;;;4.45;;
38252;SDS011;24785;52.372;20.672;2022-08-02T21:38:26;4.70;;;3.33;;
38252;SDS011;24785;52.372;20.672;2022-08-02T21:48:28;4.80;;;3.20;;
38252;SDS011;24785;52.372;20.672;2022-08-02T21:58:29;7.85;;;3.95;;
38252;SDS011;24785;52.372;20.672;2022-08-02T22:08:29;4.07;;;2.00;;
38252;SDS011;24785;52.372;20.672;2022-08-02T22:18:30;3.75;;;2.65;;
38252;SDS011;24785;52.372;20.672;2022-08-02T22:28:31;3.80;;;2.75;;
38252;SDS011;24785;52.372;20.672;2022-08-02T22:38:32;2.95;;;2.08;;
38252;SDS011;24785;52.372;20.672;2022-08-02T22:48:33;8.27;;;3.08;;
38252;SDS011;24785;52.372;20.672;2022-08-02T22:58:34;3.63;;;2.50;;
38252;SDS011;24785;52.372;20.672;2022-08-02T23:08:35;4.72;;;2.78;;
38252;SDS011;24785;52.372;20.672;2022-08-02T23:18:36;5.20;;;2.80;;
38252;SDS011;24785;52.372;20.672;2022-08-02T23:28:55;4.63;;;3.38;;
38252;SDS011;24785;52.372;20.672;2022-08-02T23:38:57;4.60;;;3.38;;
38252;SDS011;24785;52.372;20.672;2022-08-02T23:48:59;5.82;;;3.40;;
38252;SDS011;24785;52.372;20.672;2022-08-02T23:59:00;3.85;;;3.20;;
